Airfield :
LOGIN :

Register | Disclaimer

   EN    FR    IT 

 










Legend :    VFR   Marginal VFR   IFR   Intensive IFR   Very Intensive IFR
Visi :
Ceiling :
>= 8 km
>= 3000ft
5 to 8 km
1000 to 3000 ft
1500m to 5 km
500 to 1000 ft
800 to 1500m
200 to 500 ft
< 800m
< 200 ft
Symbols :   Thunderstorms  Fog  Heavy snow  Heavy precipitations  Wind > 20 kt
SIGMETs :     Misc.  Thunderstorms  Icing  Turbulence  Mountain Waves  Volcanic Ashes






- Airport Elevation : 100 ft
- IATA code : DCI


LIED - Decimomannu Air Base

CURRENT METAR :
  • 301455Z 15011KT CAVOK 35/22 Q1011 RMK SKC VIS MIN 9999 WIND THR35 15010KT WIND THR17 15010KT BLU

EXPIRED METARs :
  • 301355Z 15013KT CAVOK 35/21 Q1011 RMK SKC VIS MIN 9999 WIND THR35 13013KT WIND THR17 14012KT BLU
  • 301255Z 15013KT CAVOK 35/21 Q1011 RMK SKC VIS MIN 9999 WIND THR35 15013KT WIND THR17 15015KT BLU

TAF TAF LIED
Valid from the 30 at 15:00 until the 31 at 00:00 UTC


301400Z 3015/3024 15013KT CAVOK



MET'MAP, your aeronautical weather chart ! - Copyright ORBIFLY December 2007 - Disclaimer

ORBIFLY MET'MAP TEAM :

Programming & Development : Alexandra Zaïnal
Concept & original design : Baudouin d'Aumeries
Assistance for programming : Marc-Olivier Méhu
Technical & hardware support : Manuel Goepfert

Contact : metmap@orbifly.com




SOURCES & CREDITS :

   NOAA